Silver Euplecta — V7IW6 — position and weather

sailwx.info

Track history (hours):
 
Tides and Currents Weather Stations Pressure Air Temp Water Temp Dewpoint Dewpoint Depression Visibility Wind Speed Wind Dir Waves Ship Positions

Silver Euplecta

Last reported at 2018-Apr-12 04:06 UTC. Time now 2018-Jun-20 15:07 UTC.
Position N 22°48' E 070°06'.
Warning: this ship's position is months out of date.

Length 183 m; draft 10 m.

Type: Tanker. MMSI: 538006489.

Date/timePositionNaut miles runAvg speedWind from/ knotsBaromVisibWave heightAir tempDewpointWater temp
2018-Apr-12 04:06N 22°48' E 070°06'0 0.0
2018-Apr-11 21:36N 22°48' E 070°05'0 0.0
2018-Apr-11 21:18N 22°48' E 070°05'0 0.0
2018-Apr-11 20:54N 22°48' E 070°05'0 0.1
2018-Apr-11 20:30N 22°48' E 070°05'5 0.2
2018-Apr-10 22:06N 22°47' E 070°01'0 0.0
2018-Apr-10 02:18N 22°47' E 070°01'0 0.0
2018-Apr-10 02:00N 22°47' E 070°01'0 0.0
2018-Apr-09 04:42N 22°47' E 070°01'0 0.1
2018-Apr-09 04:30N 22°47' E 070°01'0 0.0
2018-Apr-08 20:06N 22°47' E 070°01'  
2018-Apr-03 04:14N 22°34' E 068°52'712.6
2018-Apr-03 03:42N 22°28' E 068°49'512.5
2018-Apr-03 03:16N 22°23' E 068°47'811.7
2018-Apr-03 02:35N 22°15' E 068°47'1 8.3
2018-Apr-03 02:29N 22°14' E 068°47'9712.2
2018-Apr-02 18:30N 20°43' E 069°23'813.4
2018-Apr-02 17:52N 20°35' E 069°25'513.5
2018-Apr-02 17:28N 20°30' E 069°26'613.4
2018-Apr-02 17:00N 20°24' E 069°28'913.3
2018-Apr-02 16:20N 20°15' E 069°29'413.2
2018-Apr-02 16:00N 20°11' E 069°30'713.2
2018-Apr-02 15:30N 20°04' E 069°31'713.5
2018-Apr-02 15:00N 19°57' E 069°31'713.6
2018-Apr-02 14:30N 19°51' E 069°31'713.3
2018-Apr-02 13:59N 19°44' E 069°31'613.1
2018-Apr-02 13:30N 19°37' E 069°31'712.8
2018-Apr-02 13:00N 19°31' E 069°32'6513.2
2018-Apr-02 08:05N 18°26' E 069°31'213.0
2018-Apr-02 07:57N 18°25' E 069°31'1212.8
2018-Apr-02 07:00N 18°13' E 069°36'713.0
2018-Apr-02 06:30N 18°08' E 069°40'1413.3
2018-Apr-02 05:27N 17°56' E 069°48'713.3
2018-Apr-02 04:56N 17°50' E 069°51'613.3
2018-Apr-02 04:29N 17°45' E 069°55'  
Track history (hours):
 
Tides and Currents Weather Stations Pressure Air Temp Water Temp Dewpoint Dewpoint Depression Visibility Wind Speed Wind Dir Waves Ship Positions

Silver Euplecta

Last reported at 2018-Apr-12 04:06 UTC. Time now 2018-Jun-20 15:07 UTC.
Position N 22°48' E 070°06'.
Warning: this ship's position is months out of date.

Length 183 m; draft 10 m.

Type: Tanker. MMSI: 538006489.

Date/timePositionNaut miles runAvg speedWind from/ knotsBaromVisibWave heightAir tempDewpointWater temp
2018-Apr-12 04:06N 22°48' E 070°06'0 0.0
2018-Apr-11 21:36N 22°48' E 070°05'0 0.0
2018-Apr-11 21:18N 22°48' E 070°05'0 0.0
2018-Apr-11 20:54N 22°48' E 070°05'0 0.1
2018-Apr-11 20:30N 22°48' E 070°05'5 0.2
2018-Apr-10 22:06N 22°47' E 070°01'0 0.0
2018-Apr-10 02:18N 22°47' E 070°01'0 0.0
2018-Apr-10 02:00N 22°47' E 070°01'0 0.0
2018-Apr-09 04:42N 22°47' E 070°01'0 0.1
2018-Apr-09 04:30N 22°47' E 070°01'0 0.0
2018-Apr-08 20:06N 22°47' E 070°01'  
2018-Apr-03 04:14N 22°34' E 068°52'712.6
2018-Apr-03 03:42N 22°28' E 068°49'512.5
2018-Apr-03 03:16N 22°23' E 068°47'811.7
2018-Apr-03 02:35N 22°15' E 068°47'1 8.3
2018-Apr-03 02:29N 22°14' E 068°47'9712.2
2018-Apr-02 18:30N 20°43' E 069°23'813.4
2018-Apr-02 17:52N 20°35' E 069°25'513.5
2018-Apr-02 17:28N 20°30' E 069°26'613.4
2018-Apr-02 17:00N 20°24' E 069°28'913.3
2018-Apr-02 16:20N 20°15' E 069°29'413.2
2018-Apr-02 16:00N 20°11' E 069°30'713.2
2018-Apr-02 15:30N 20°04' E 069°31'713.5
2018-Apr-02 15:00N 19°57' E 069°31'713.6
2018-Apr-02 14:30N 19°51' E 069°31'713.3
2018-Apr-02 13:59N 19°44' E 069°31'613.1
2018-Apr-02 13:30N 19°37' E 069°31'712.8
2018-Apr-02 13:00N 19°31' E 069°32'6513.2
2018-Apr-02 08:05N 18°26' E 069°31'213.0
2018-Apr-02 07:57N 18°25' E 069°31'1212.8
2018-Apr-02 07:00N 18°13' E 069°36'713.0
2018-Apr-02 06:30N 18°08' E 069°40'1413.3
2018-Apr-02 05:27N 17°56' E 069°48'713.3
2018-Apr-02 04:56N 17°50' E 069°51'613.3
2018-Apr-02 04:29N 17°45' E 069°55'  

Dump ship's entire track history